Time;durP1;ratioP1;P1;durP2;ratioP2;P2;SDS_P1;SDS_P2;PMS_P1;PMS_P2;Temp;Humidity;BMP_temperature;BMP_pressure;BME280_temperature;BME280_humidity;BME280_pressure;Samples;Min_cycle;Max_cycle;Signal;HPM_P1;HPM_P2
2021/05/23 00:00:09;;;;;;;;;3.00;3.00;;;;;22.85;32.03;98279.81;4990087;28;8974;-47
2021/05/23 00:02:34;;;;;;;;;3.20;3.20;;;;;22.86;31.62;98284.13;4990116;28;8816;-48
2021/05/23 00:04:59;;;;;;;;;3.00;3.00;;;;;22.92;31.51;98292.00;4992546;28;8828;-47
2021/05/23 00:07:27;;;;;;;;;2.00;2.00;;;;;22.79;32.50;98288.78;4990481;28;8831;-43
2021/05/23 00:09:53;;;;;;;;;3.00;3.00;;;;;22.65;32.25;98265.53;4990994;28;8803;-45
2021/05/23 00:12:19;;;;;;;;;2.20;2.20;;;;;22.86;31.67;98299.84;4990643;28;8796;-47
2021/05/23 00:14:45;;;;;;;;;3.00;3.00;;;;;22.82;31.27;98293.53;4993432;28;8828;-47
2021/05/23 00:17:10;;;;;;;;;3.00;3.00;;;;;22.80;31.24;98298.63;4990645;28;8991;-47
2021/05/23 00:19:36;;;;;;;;;3.00;3.00;;;;;22.77;31.29;98297.41;4992333;28;8797;-47
2021/05/23 00:22:01;;;;;;;;;2.75;2.75;;;;;22.21;32.85;98298.53;4993003;28;9571;-40
2021/05/23 00:24:27;;;;;;;;;2.50;2.50;;;;;21.82;34.08;98299.72;4991598;28;11460;-42
2021/05/23 00:26:52;;;;;;;;;3.00;3.00;;;;;22.53;32.52;98298.81;4991352;28;8986;-43
2021/05/23 00:29:18;;;;;;;;;3.00;3.00;;;;;22.81;31.93;98289.19;4992412;28;8893;-43
2021/05/23 00:31:44;;;;;;;;;2.00;2.00;;;;;22.96;31.72;98293.63;4991510;28;11489;-42
2021/05/23 00:34:10;;;;;;;;;2.60;2.60;;;;;23.07;31.45;98288.22;4990425;28;9070;-41
2021/05/23 00:36:36;;;;;;;;;3.60;3.60;;;;;23.14;31.54;98285.50;4987373;28;8878;-43
2021/05/23 00:39:02;;;;;;;;;2.75;2.75;;;;;23.11;32.07;98288.22;4993382;28;9523;-45
2021/05/23 00:41:28;;;;;;;;;4.00;4.00;;;;;23.10;31.72;98290.19;4992292;28;8777;-42
2021/05/23 00:43:53;;;;;;;;;3.00;3.00;;;;;23.09;32.08;98285.06;4989885;28;8800;-42
2021/05/23 00:46:18;;;;;;;;;2.00;2.00;;;;;23.12;32.16;98281.56;4992719;28;8792;-43
2021/05/23 00:48:44;;;;;;;;;3.00;3.00;;;;;23.09;32.29;98282.31;4993490;28;8824;-44
2021/05/23 00:51:09;;;;;;;;;3.00;3.00;;;;;23.08;32.66;98272.47;4990547;28;8828;-46
2021/05/23 00:53:35;;;;;;;;;3.00;3.00;;;;;23.18;32.31;98269.00;4991188;28;8909;-45
2021/05/23 00:56:01;;;;;;;;;3.80;3.80;;;;;22.60;32.40;98201.91;4991516;28;8784;-42
2021/05/23 00:58:26;;;;;;;;;4.00;3.00;;;;;22.20;33.30;98295.00;4991026;28;8808;-43
2021/05/23 01:00:54;;;;;;;;;2.00;2.00;;;;;22.29;33.65;98290.00;4993118;28;8840;-45
2021/05/23 01:03:26;;;;;;;;;3.00;3.00;;;;;22.82;32.09;98296.28;4990253;28;8828;-46
2021/05/23 01:05:56;;;;;;;;;2.00;2.00;;;;;22.97;32.58;98295.22;4977542;28;8857;-43
2021/05/23 01:08:22;;;;;;;;;3.00;3.00;;;;;23.00;32.41;98283.41;4981950;28;8826;-44
2021/05/23 01:11:04;;;;;;;;;3.20;3.20;;;;;22.96;32.58;98293.63;4988322;28;8802;-44
2021/05/23 01:13:58;;;;;;;;;2.80;2.80;;;;;23.00;32.60;98290.88;4992342;28;8835;-46
2021/05/23 01:16:31;;;;;;;;;3.00;2.00;;;;;22.96;32.92;98288.13;4990424;28;8982;-39
2021/05/23 01:19:02;;;;;;;;;3.00;3.00;;;;;23.51;32.33;98287.22;4992461;28;8803;-44
2021/05/23 01:21:32;;;;;;;;;3.40;3.40;;;;;22.54;32.89;98141.03;4990472;28;8959;-43
2021/05/23 01:24:01;;;;;;;;;2.80;2.80;;;;;23.26;33.24;98284.38;4989818;28;8918;-44
2021/05/23 01:26:33;;;;;;;;;4.00;3.80;;;;;22.97;33.19;98242.97;4987014;28;8812;-48
2021/05/23 01:29:10;;;;;;;;;3.80;3.80;;;;;23.33;33.49;98284.41;4991075;28;8931;-48
2021/05/23 01:31:37;;;;;;;;;3.00;3.00;;;;;23.20;33.36;98270.22;4989071;28;8911;-48
2021/05/23 01:34:03;;;;;;;;;3.00;3.00;;;;;22.92;33.41;98243.34;4991412;28;9669;-47
2021/05/23 01:36:39;;;;;;;;;3.00;3.00;;;;;23.20;33.45;98291.41;4988085;28;8824;-46
2021/05/23 01:39:11;;;;;;;;;3.00;3.00;;;;;23.16;33.50;98285.88;4989936;28;8844;-45
2021/05/23 01:41:37;;;;;;;;;3.00;3.00;;;;;22.85;33.71;98290.03;4994700;28;8804;-43
2021/05/23 01:44:04;;;;;;;;;2.00;2.00;;;;;22.72;33.71;98275.00;4992457;28;8816;-44
2021/05/23 01:46:29;;;;;;;;;2.20;2.20;;;;;22.63;33.30;98281.63;4991085;28;8796;-44
2021/05/23 01:48:55;;;;;;;;;2.00;2.00;;;;;22.54;33.69;98286.66;4992992;28;8895;-43
2021/05/23 01:51:20;;;;;;;;;2.50;2.50;;;;;22.49;33.50;98284.28;4988202;28;8781;-43
2021/05/23 01:53:46;;;;;;;;;2.00;2.00;;;;;22.41;33.47;98296.38;4990547;28;8800;-44
2021/05/23 01:56:11;;;;;;;;;4.00;4.00;;;;;22.35;33.65;98292.41;4989540;28;8910;-44
2021/05/23 01:58:37;;;;;;;;;3.00;3.00;;;;;22.30;33.40;98297.09;4990008;28;11533;-44
2021/05/23 02:01:03;;;;;;;;;3.00;3.00;;;;;22.61;33.15;98294.97;4992292;28;8796;-43
2021/05/23 02:03:29;;;;;;;;;3.00;3.00;;;;;22.33;33.17;98270.03;4993267;28;8807;-44
2021/05/23 02:05:57;;;;;;;;;2.40;2.40;;;;;22.13;33.47;98276.50;4980627;28;8825;-44
2021/05/23 02:08:24;;;;;;;;;3.40;3.40;;;;;21.70;33.53;98225.88;4984935;28;8808;-44
2021/05/23 02:10:53;;;;;;;;;3.00;3.00;;;;;22.11;33.47;98297.28;4995502;28;8784;-44
2021/05/23 02:13:20;;;;;;;;;3.00;3.00;;;;;22.05;33.46;98287.78;4995292;28;8870;-44
2021/05/23 02:15:46;;;;;;;;;2.20;2.20;;;;;22.05;33.49;98301.53;4998511;28;8839;-44
2021/05/23 02:18:12;;;;;;;;;2.00;2.00;;;;;22.01;33.43;98301.50;4995437;28;8804;-44
2021/05/23 02:20:38;;;;;;;;;2.00;2.00;;;;;21.99;33.37;98298.34;4995456;28;11146;-43
2021/05/23 02:23:06;;;;;;;;;3.40;3.40;;;;;19.46;33.40;97923.00;4988257;28;8806;-44
2021/05/23 02:25:33;;;;;;;;;2.00;2.00;;;;;21.93;33.42;98300.63;4974775;28;9601;-43
2021/05/23 02:28:05;;;;;;;;;2.00;2.00;;;;;21.91;33.66;98313.94;4997161;28;8800;-44
2021/05/23 02:30:34;;;;;;;;;2.60;2.60;;;;;21.89;33.39;98299.78;4995588;28;8800;-43
2021/05/23 02:33:01;;;;;;;;;2.00;2.00;;;;;22.07;33.26;98310.16;4995530;28;8834;-44
2021/05/23 02:35:28;;;;;;;;;3.00;3.00;;;;;22.16;33.08;98305.16;4995286;28;8859;-44
2021/05/23 02:37:54;;;;;;;;;2.00;2.00;;;;;21.80;33.30;98291.06;4994200;28;9693;-44
2021/05/23 02:40:24;;;;;;;;;2.20;2.20;;;;;21.85;33.32;98315.44;4995550;28;8915;-44
2021/05/23 02:42:50;;;;;;;;;2.80;2.80;;;;;21.80;33.51;98307.53;4996969;28;8817;-44
2021/05/23 02:45:17;;;;;;;;;2.20;2.20;;;;;21.73;33.59;98311.00;4979231;28;8850;-43
2021/05/23 02:47:44;;;;;;;;;2.00;2.00;;;;;21.73;33.57;98308.25;4987622;28;8785;-44
2021/05/23 02:50:12;;;;;;;;;2.00;2.00;;;;;21.32;33.41;98256.03;4995318;28;8800;-43
2021/05/23 02:52:38;;;;;;;;;3.00;3.00;;;;;21.63;33.64;98302.66;4995015;28;8820;-44
2021/05/23 02:55:06;;;;;;;;;2.00;2.00;;;;;21.64;33.60;98317.97;4997212;28;9664;-43
2021/05/23 02:57:33;;;;;;;;;2.80;2.80;;;;;21.25;33.52;98260.63;4995350;28;8780;-43
2021/05/23 02:59:58;;;;;;;;;2.00;2.00;;;;;21.59;33.69;98316.31;4994642;28;8809;-44
2021/05/23 03:02:24;;;;;;;;;2.00;2.00;;;;;21.59;33.59;98315.53;4995003;28;8804;-44
2021/05/23 03:04:49;;;;;;;;;2.00;2.00;;;;;21.57;33.72;98318.66;4996497;28;10074;-43
2021/05/23 03:07:14;;;;;;;;;2.00;2.00;;;;;21.89;33.20;98313.50;4994333;28;8897;-44
2021/05/23 03:09:39;;;;;;;;;2.00;2.00;;;;;21.74;33.48;98322.78;4996656;28;8843;-44
2021/05/23 03:12:05;;;;;;;;;2.00;2.00;;;;;21.59;33.63;98312.81;4995847;28;8792;-44
2021/05/23 03:14:30;;;;;;;;;2.00;2.00;;;;;21.53;33.63;98323.31;5003867;28;8800;-44
2021/05/23 03:16:56;;;;;;;;;2.00;2.00;;;;;21.50;33.88;98321.31;5004781;28;8780;-44
2021/05/23 03:19:21;;;;;;;;;3.00;3.00;;;;;21.47;33.73;98328.31;5004307;28;8800;-44
2021/05/23 03:21:47;;;;;;;;;3.00;3.00;;;;;21.46;33.70;98315.78;5002644;28;8792;-43
2021/05/23 03:24:12;;;;;;;;;2.00;2.00;;;;;21.43;33.64;98326.69;5004148;28;10162;-44
2021/05/23 03:26:38;;;;;;;;;3.00;3.00;;;;;21.39;33.68;98321.16;4994649;28;8861;-43
2021/05/23 03:29:03;;;;;;;;;2.50;2.00;;;;;21.38;33.80;98319.56;4993926;28;8807;-43
2021/05/23 03:31:29;;;;;;;;;2.00;2.00;;;;;21.35;33.80;98321.13;5005283;28;8792;-44
2021/05/23 03:33:54;;;;;;;;;2.00;2.00;;;;;21.33;33.83;98317.94;5004259;28;8955;-44
2021/05/23 03:36:20;;;;;;;;;2.00;2.00;;;;;21.32;33.84;98324.59;5002759;28;8884;-44
2021/05/23 03:38:47;;;;;;;;;2.00;2.00;;;;;21.38;33.76;98314.06;5008513;28;8796;-43
2021/05/23 03:41:13;;;;;;;;;2.00;2.00;;;;;21.61;33.45;98324.19;5003706;28;8767;-43
2021/05/23 03:43:39;;;;;;;;;1.60;1.60;;;;;21.39;33.79;98321.16;5005785;28;8782;-44
2021/05/23 03:46:04;;;;;;;;;2.75;2.75;;;;;21.29;33.94;98319.06;5013455;28;8893;-44
2021/05/23 03:48:31;;;;;;;;;2.00;2.00;;;;;21.25;33.94;98321.75;4985543;28;8803;-44
2021/05/23 03:50:56;;;;;;;;;2.00;2.00;;;;;21.25;33.91;98320.94;5002278;28;8780;-43
2021/05/23 03:53:22;;;;;;;;;2.00;2.00;;;;;21.09;34.06;98313.72;4998145;28;9513;-44
2021/05/23 03:55:49;;;;;;;;;2.00;2.00;;;;;21.18;34.10;98336.16;5002644;28;11536;-44
2021/05/23 03:58:15;;;;;;;;;1.00;1.00;;;;;21.17;33.99;98326.34;4995998;28;8966;-43
2021/05/23 04:00:40;;;;;;;;;1.80;1.80;;;;;21.21;33.77;98331.09;5005836;28;8804;-44
2021/05/23 04:03:05;;;;;;;;;2.00;2.00;;;;;21.16;33.85;98338.47;5004215;28;8903;-44
2021/05/23 04:05:31;;;;;;;;;2.00;2.00;;;;;21.12;34.12;98345.06;5009745;28;8789;-43
2021/05/23 04:07:58;;;;;;;;;2.00;2.00;;;;;21.11;34.10;98335.28;5009619;28;8831;-43
2021/05/23 04:10:31;;;;;;;;;1.80;1.80;;;;;21.08;34.08;98333.28;5006703;28;8804;-43
2021/05/23 04:12:59;;;;;;;;;2.00;2.00;;;;;21.33;33.83;98330.84;4996514;28;8833;-44
2021/05/23 04:15:24;;;;;;;;;2.00;2.00;;;;;21.27;33.98;98337.84;5005474;28;9679;-43
2021/05/23 04:17:50;;;;;;;;;2.00;2.00;;;;;21.04;34.01;98322.25;5009978;28;8780;-44
2021/05/23 04:20:19;;;;;;;;;2.00;2.00;;;;;21.08;34.04;98344.25;5010717;28;8823;-44
2021/05/23 04:22:45;;;;;;;;;1.20;1.20;;;;;21.06;34.13;98346.56;5001188;28;11575;-44
2021/05/23 04:25:13;;;;;;;;;1.80;1.80;;;;;20.92;34.24;98320.50;5007182;28;8927;-44
2021/05/23 04:27:40;;;;;;;;;1.40;1.40;;;;;21.03;34.05;98348.06;5000173;28;8808;-43
2021/05/23 04:30:07;;;;;;;;;2.00;2.00;;;;;20.95;34.20;98338.97;5008077;28;8831;-44
2021/05/23 04:32:33;;;;;;;;;2.40;2.40;;;;;21.01;34.27;98346.88;5008705;28;8911;-43
2021/05/23 04:34:58;;;;;;;;;2.50;2.50;;;;;21.01;34.19;98350.41;5010644;28;8764;-44
2021/05/23 04:37:23;;;;;;;;;2.00;2.00;;;;;20.98;34.21;98348.38;5003582;28;8815;-44
2021/05/23 04:39:49;;;;;;;;;2.00;2.00;;;;;20.98;34.23;98351.94;5006559;28;8823;-44
2021/05/23 04:42:14;;;;;;;;;1.75;1.75;;;;;20.98;34.22;98351.94;5000998;28;8820;-44
2021/05/23 04:44:39;;;;;;;;;2.00;2.00;;;;;21.10;34.21;98348.19;5006178;28;8820;-44
2021/05/23 04:47:04;;;;;;;;;1.00;1.00;;;;;21.25;33.88;98351.94;5009628;28;9526;-43
2021/05/23 04:49:30;;;;;;;;;2.00;2.00;;;;;21.08;34.18;98349.72;5007693;28;9571;-44
2021/05/23 04:51:55;;;;;;;;;2.00;2.00;;;;;21.00;34.29;98359.78;5007954;28;8822;-44
2021/05/23 04:54:21;;;;;;;;;3.00;3.00;;;;;20.96;34.29;98367.94;5006172;28;8812;-44
2021/05/23 04:56:46;;;;;;;;;2.00;2.00;;;;;20.95;34.30;98365.59;4994178;28;11506;-44
2021/05/23 04:59:12;;;;;;;;;2.00;2.00;;;;;20.92;34.33;98367.09;4997155;28;8808;-44
2021/05/23 05:01:37;;;;;;;;;2.25;2.25;;;;;20.92;34.29;98369.06;5003284;28;8764;-44
2021/05/23 05:04:03;;;;;;;;;2.00;2.00;;;;;20.90;34.35;98374.91;5003699;28;8966;-43
2021/05/23 05:06:28;;;;;;;;;2.00;2.00;;;;;20.91;34.38;98370.22;5000446;28;8808;-43
2021/05/23 05:08:54;;;;;;;;;2.00;2.00;;;;;20.90;34.38;98377.66;5000530;28;11461;-43
2021/05/23 05:11:19;;;;;;;;;2.00;2.00;;;;;20.89;34.33;98376.06;4997119;28;9009;-44
2021/05/23 05:13:44;;;;;;;;;2.00;2.00;;;;;20.89;34.32;98378.81;4998835;28;9548;-43
2021/05/23 05:16:11;;;;;;;;;1.25;1.25;;;;;20.89;34.25;98380.75;5000205;28;8851;-44
2021/05/23 05:18:36;;;;;;;;;1.00;1.00;;;;;21.04;34.24;98374.34;4996248;28;8796;-44
2021/05/23 05:21:03;;;;;;;;;3.00;3.00;;;;;21.03;34.33;98378.22;4996123;28;8951;-44
2021/05/23 05:23:28;;;;;;;;;2.20;2.00;;;;;20.90;34.37;98376.88;4997418;28;8989;-44
2021/05/23 05:25:54;;;;;;;;;2.00;2.00;;;;;20.85;34.50;98377.19;4988056;28;8971;-44
2021/05/23 05:28:19;;;;;;;;;2.00;2.00;;;;;20.83;34.45;98376.75;4976665;28;8905;-43
2021/05/23 05:30:44;;;;;;;;;2.00;2.00;;;;;20.82;34.52;98378.69;5000898;28;8817;-44
2021/05/23 05:33:10;;;;;;;;;1.25;1.25;;;;;20.66;34.60;98353.38;4998169;28;8788;-44
2021/05/23 05:35:35;;;;;;;;;2.00;2.00;;;;;20.66;34.47;98362.38;4998503;28;8840;-44
2021/05/23 05:38:01;;;;;;;;;2.00;2.00;;;;;20.77;34.51;98377.06;4999172;28;8886;-44
2021/05/23 05:40:26;;;;;;;;;2.00;2.00;;;;;20.76;34.54;98380.16;4999006;28;8917;-43
2021/05/23 05:42:51;;;;;;;;;2.25;2.25;;;;;20.75;34.62;98389.53;4999452;28;8851;-44
2021/05/23 05:45:17;;;;;;;;;1.75;1.75;;;;;20.47;34.64;98346.78;4998752;28;8805;-43
2021/05/23 05:47:42;;;;;;;;;1.00;1.00;;;;;20.72;34.59;98382.84;4994818;28;8916;-43
2021/05/23 05:50:09;;;;;;;;;2.00;2.00;;;;;20.71;34.77;98384.00;4989314;28;8787;-43
2021/05/23 05:52:34;;;;;;;;;2.00;2.00;;;;;20.87;34.33;98366.63;4977380;28;8760;-43
2021/05/23 05:54:59;;;;;;;;;3.00;3.00;;;;;20.85;34.55;98379.91;4999848;28;8897;-43
2021/05/23 05:57:25;;;;;;;;;2.00;2.00;;;;;20.75;34.64;98386.81;4999030;28;8921;-43
2021/05/23 05:59:50;;;;;;;;;1.75;1.75;;;;;20.70;34.66;98385.19;4995257;28;8820;-44
2021/05/23 06:02:16;;;;;;;;;2.00;2.00;;;;;20.69;34.67;98389.06;4994338;28;8919;-44
2021/05/23 06:04:42;;;;;;;;;2.00;2.00;;;;;20.17;34.82;98314.59;4993958;28;8920;-43
2021/05/23 06:07:07;;;;;;;;;2.00;2.00;;;;;20.66;34.74;98392.53;4975236;28;8831;-43
2021/05/23 06:09:32;;;;;;;;;2.00;2.00;;;;;20.65;34.68;98388.22;4976363;28;8807;-44
2021/05/23 06:11:58;;;;;;;;;3.00;2.75;;;;;20.65;34.74;98392.88;4991183;28;8796;-44
2021/05/23 06:14:23;;;;;;;;;1.00;1.00;;;;;20.64;34.80;98392.09;4996337;28;8903;-43
2021/05/23 06:16:48;;;;;;;;;3.00;2.75;;;;;20.62;34.78;98394.41;4997788;28;8825;-43
2021/05/23 06:19:13;;;;;;;;;2.00;2.00;;;;;20.61;34.90;98388.16;4997115;28;8903;-43
2021/05/23 06:21:39;;;;;;;;;2.00;2.00;;;;;20.60;34.76;98399.44;5000986;28;8800;-44
2021/05/23 06:24:05;;;;;;;;;2.00;2.00;;;;;20.72;34.87;98402.03;4996336;28;9582;-44
2021/05/23 06:26:30;;;;;;;;;1.75;1.75;;;;;20.82;34.61;98400.63;4994249;28;8831;-44
2021/05/23 06:28:55;;;;;;;;;2.00;2.00;;;;;20.68;34.80;98405.88;4994821;28;10614;-44
2021/05/23 06:31:22;;;;;;;;;2.00;2.00;;;;;20.63;34.97;98403.44;4996049;28;8919;-44
2021/05/23 06:33:47;;;;;;;;;2.00;2.00;;;;;20.60;34.89;98411.19;4995865;28;8816;-44
2021/05/23 06:36:13;;;;;;;;;2.00;2.00;;;;;20.58;34.96;98412.72;4990749;28;8828;-44
2021/05/23 06:38:38;;;;;;;;;1.75;1.75;;;;;20.57;34.86;98411.91;4997015;28;8788;-44
2021/05/23 06:41:04;;;;;;;;;1.00;1.00;;;;;20.55;34.87;98410.72;4994782;28;10986;-44
2021/05/23 06:43:30;;;;;;;;;2.00;2.00;;;;;20.53;35.03;98413.03;4995198;28;8792;-43
2021/05/23 06:45:55;;;;;;;;;1.00;1.00;;;;;20.50;35.12;98409.06;4979272;28;8835;-44
2021/05/23 06:48:21;;;;;;;;;2.00;2.00;;;;;20.50;35.00;98411.00;4993998;28;8796;-44
2021/05/23 06:50:47;;;;;;;;;2.00;2.00;;;;;20.14;34.91;98361.06;4995629;28;8788;-44
2021/05/23 06:53:13;;;;;;;;;2.00;2.00;;;;;20.38;34.88;98395.53;4996914;28;10379;-44
2021/05/23 06:55:38;;;;;;;;;2.00;2.00;;;;;20.49;35.16;98423.91;4995722;28;8831;-44
2021/05/23 06:58:03;;;;;;;;;2.00;2.00;;;;;20.71;34.81;98422.38;4998641;28;8832;-44
2021/05/23 07:00:29;;;;;;;;;2.00;2.00;;;;;20.66;34.79;98419.91;4994670;28;8913;-44
2021/05/23 07:02:54;;;;;;;;;2.00;2.00;;;;;20.53;35.25;98419.28;4999118;28;8830;-44
2021/05/23 07:05:19;;;;;;;;;2.00;2.00;;;;;20.26;35.13;98382.78;4996250;28;9659;-44
2021/05/23 07:07:47;;;;;;;;;2.00;2.00;;;;;20.49;35.06;98426.66;4997236;28;8800;-44
2021/05/23 07:10:12;;;;;;;;;2.40;2.00;;;;;20.46;35.12;98434.81;4996516;28;9392;-44
2021/05/23 07:12:38;;;;;;;;;2.25;2.25;;;;;20.46;35.07;98429.34;4996091;28;9789;-44
2021/05/23 07:15:04;;;;;;;;;2.00;2.00;;;;;20.46;35.05;98429.34;4979779;28;8799;-44
2021/05/23 07:17:29;;;;;;;;;2.00;2.00;;;;;20.45;35.09;98433.22;4978761;28;9530;-44
2021/05/23 07:19:54;;;;;;;;;2.00;2.00;;;;;20.42;35.17;98438.28;4984103;28;8819;-44
2021/05/23 07:22:21;;;;;;;;;2.00;2.00;;;;;20.40;35.17;98440.59;4996270;28;8812;-43
2021/05/23 07:24:46;;;;;;;;;2.00;2.00;;;;;20.30;35.33;98427.47;4996068;28;8832;-44
2021/05/23 07:27:11;;;;;;;;;2.00;2.00;;;;;20.40;35.16;98443.31;4994124;28;8827;-43
2021/05/23 07:29:37;;;;;;;;;2.00;2.00;;;;;20.48;35.25;98444.25;4994653;28;8794;-43
2021/05/23 07:32:02;;;;;;;;;2.00;2.00;;;;;20.67;34.95;98442.63;4998063;28;8919;-44
2021/05/23 07:34:28;;;;;;;;;2.00;2.00;;;;;20.51;35.24;98453.66;4996770;28;8796;-44
2021/05/23 07:36:55;;;;;;;;;2.00;2.00;;;;;20.43;35.25;98459.00;4997347;28;8832;-43
2021/05/23 07:39:20;;;;;;;;;2.00;2.00;;;;;20.39;35.32;98460.91;4994146;28;8788;-43
2021/05/23 07:41:45;;;;;;;;;2.00;2.00;;;;;20.36;35.36;98464.34;4995706;28;8846;-44
2021/05/23 07:44:11;;;;;;;;;2.25;2.25;;;;;20.34;35.48;98461.19;4989045;28;8794;-44
2021/05/23 07:46:36;;;;;;;;;2.25;2.25;;;;;20.35;35.34;98462.78;4982706;28;8744;-44
2021/05/23 07:49:02;;;;;;;;;2.00;2.00;;;;;20.35;35.29;98462.78;4997873;28;8832;-44
2021/05/23 07:51:27;;;;;;;;;2.00;2.00;;;;;20.14;35.39;98430.31;4996574;28;9574;-43
2021/05/23 07:53:52;;;;;;;;;3.25;3.00;;;;;20.34;35.25;98461.19;4993927;28;8796;-44
2021/05/23 07:56:18;;;;;;;;;2.00;2.00;;;;;20.34;35.29;98461.19;4994763;28;8772;-43
2021/05/23 07:58:44;;;;;;;;;2.00;2.00;;;;;20.33;35.34;98459.59;4998353;28;8941;-43
2021/05/23 08:01:11;;;;;;;;;2.00;2.00;;;;;20.34;35.37;98471.38;4998031;28;9582;-43
2021/05/23 08:03:37;;;;;;;;;2.40;2.40;;;;;20.50;35.36;98461.09;4994923;28;8816;-43
2021/05/23 08:06:04;;;;;;;;;2.00;2.00;;;;;20.48;35.41;98471.63;4996965;28;8883;-44
2021/05/23 08:08:30;;;;;;;;;2.00;2.00;;;;;20.37;35.38;98474.16;4995947;28;8819;-43
2021/05/23 08:10:55;;;;;;;;;2.00;2.00;;;;;20.34;35.43;98471.38;4993291;28;8904;-44
2021/05/23 08:13:21;;;;;;;;;2.00;2.00;;;;;20.29;35.57;98477.91;4995687;28;8863;-44
2021/05/23 08:15:46;;;;;;;;;2.00;2.00;;;;;20.29;35.50;98475.19;4973122;28;8939;-44
2021/05/23 08:18:17;;;;;;;;;2.00;2.00;;;;;20.30;35.55;98475.97;4976461;28;8795;-44
2021/05/23 08:20:42;;;;;;;;;3.00;3.00;;;;;20.15;35.42;98450.25;4997621;28;8839;-44
2021/05/23 08:23:08;;;;;;;;;2.00;2.00;;;;;20.28;35.53;98481.81;4999150;28;8793;-44
2021/05/23 08:25:33;;;;;;;;;2.00;2.00;;;;;20.30;35.42;98481.44;5004410;28;8779;-44
2021/05/23 08:27:58;;;;;;;;;2.00;2.00;;;;;20.29;35.39;98485.34;5006132;28;8805;-43
2021/05/23 08:30:24;;;;;;;;;2.75;2.00;;;;;19.97;35.42;98434.28;4999753;28;8807;-43
2021/05/23 08:32:50;;;;;;;;;2.00;2.00;;;;;20.28;35.37;98481.81;5001296;28;8839;-43
2021/05/23 08:35:15;;;;;;;;;2.00;2.00;;;;;19.98;35.68;98433.13;5001010;28;8819;-43
2021/05/23 08:37:41;;;;;;;;;2.00;2.00;;;;;20.52;35.35;98482.66;4997942;28;8784;-44
2021/05/23 08:40:07;;;;;;;;;2.00;2.00;;;;;20.37;35.48;98482.38;5008626;28;9607;-43
2021/05/23 08:42:35;;;;;;;;;2.00;2.00;;;;;20.32;35.34;98482.69;4999108;28;8800;-44
2021/05/23 08:45:00;;;;;;;;;2.00;2.00;;;;;20.31;35.51;98488.50;5002281;28;8828;-44
2021/05/23 08:47:26;;;;;;;;;2.00;2.00;;;;;20.28;35.53;98490.03;5004633;28;8915;-44
2021/05/23 08:49:51;;;;;;;;;2.00;2.00;;;;;20.15;35.57;98464.72;5003838;28;8776;-44
2021/05/23 08:52:20;;;;;;;;;2.00;2.00;;;;;20.24;35.58;98481.75;5004124;28;8812;-43
2021/05/23 08:54:48;;;;;;;;;2.20;2.20;;;;;20.25;35.63;98490.75;5008686;28;8800;-44
2021/05/23 08:57:17;;;;;;;;;2.00;2.00;;;;;20.25;35.69;98482.53;4987029;28;8799;-43
2021/05/23 08:59:43;;;;;;;;;2.00;2.00;;;;;20.24;35.75;98483.69;4983964;28;8893;-44
2021/05/23 09:02:09;;;;;;;;;2.00;2.00;;;;;19.93;35.63;98440.81;4994973;28;8903;-44
2021/05/23 09:04:34;;;;;;;;;2.40;2.40;;;;;20.14;35.70;98473.28;5004186;28;8752;-44
2021/05/23 09:07:01;;;;;;;;;2.00;2.00;;;;;20.07;35.56;98464.94;5005242;28;8804;-44
2021/05/23 09:09:26;;;;;;;;;2.20;2.20;;;;;20.46;35.45;98492.34;5011661;28;8915;-44
2021/05/23 09:11:54;;;;;;;;;2.00;2.00;;;;;20.45;35.56;98488.78;5002555;28;9517;-43
2021/05/23 09:14:31;;;;;;;;;3.00;3.00;;;;;20.33;35.56;98500.66;5005599;28;8788;-44
2021/05/23 09:16:56;;;;;;;;;2.00;2.00;;;;;20.31;35.75;98499.47;5005533;28;8784;-44
2021/05/23 09:19:22;;;;;;;;;2.50;2.50;;;;;20.29;35.66;98502.56;5003135;28;8771;-44
2021/05/23 09:21:47;;;;;;;;;3.00;3.00;;;;;20.29;35.65;98507.25;4981779;28;9551;-44
2021/05/23 09:24:12;;;;;;;;;2.00;2.00;;;;;20.25;35.67;98507.19;4994290;28;8954;-43
2021/05/23 09:26:46;;;;;;;;;2.25;2.25;;;;;20.26;35.62;98511.47;4993541;28;8800;-44
2021/05/23 09:29:20;;;;;;;;;3.00;3.00;;;;;20.23;35.68;98507.53;4992226;28;8839;-44
2021/05/23 09:31:55;;;;;;;;;3.00;2.80;;;;;20.22;35.57;98502.41;4989558;28;8799;-43
2021/05/23 09:34:28;;;;;;;;;2.00;2.00;;;;;20.24;35.70;98506.41;4974253;28;8807;-44
2021/05/23 09:36:53;;;;;;;;;3.00;3.00;;;;;20.23;35.61;98506.75;4994575;28;8820;-44
2021/05/23 09:39:20;;;;;;;;;2.75;2.75;;;;;20.23;35.69;98510.28;4998377;28;8780;-43
2021/05/23 09:41:46;;;;;;;;;2.00;2.00;;;;;20.27;35.77;98510.34;4994950;28;8811;-44
2021/05/23 09:44:19;;;;;;;;;2.00;2.00;;;;;20.42;35.52;98514.97;4994456;28;8773;-44
2021/05/23 09:46:50;;;;;;;;;2.40;2.40;;;;;20.29;35.68;98519.00;4998741;28;8840;-44
2021/05/23 09:49:16;;;;;;;;;2.00;2.00;;;;;20.24;35.82;98522.00;4995280;28;8826;-43
2021/05/23 09:52:03;;;;;;;;;2.00;2.00;;;;;20.24;35.70;98522.00;4993150;28;8893;-44
2021/05/23 09:54:30;;;;;;;;;2.00;2.00;;;;;20.22;35.73;98518.84;4992321;28;8842;-44
2021/05/23 09:56:57;;;;;;;;;2.00;2.00;;;;;20.13;36.26;98527.28;4990820;28;8892;-45
2021/05/23 09:59:23;;;;;;;;;4.20;2.40;;;;;20.16;36.13;98531.25;4996112;28;8789;-45
2021/05/23 10:01:50;;;;;;;;;2.40;2.40;;;;;20.17;36.10;98528.13;4995197;28;8778;-45
2021/05/23 10:04:20;;;;;;;;;2.00;2.00;;;;;20.17;36.35;98528.13;4995306;28;8824;-42
2021/05/23 10:07:16;;;;;;;;;2.00;2.00;;;;;20.11;36.27;98543.25;4998532;28;8788;-50
2021/05/23 10:09:42;;;;;;;;;2.40;2.40;;;;;20.09;36.98;98531.88;4994557;28;8799;-45
2021/05/23 10:12:11;;;;;;;;;2.00;2.00;;;;;20.14;36.47;98544.47;4992471;28;8800;-45
2021/05/23 10:14:38;;;;;;;;;2.00;2.00;;;;;20.25;36.36;98540.03;4994680;28;9024;-45
2021/05/23 10:17:07;;;;;;;;;2.00;2.00;;;;;20.42;35.85;98544.28;4998104;28;9854;-45
2021/05/23 10:19:33;;;;;;;;;2.20;2.00;;;;;20.28;36.10;98544.00;4993633;28;8800;-45
2021/05/23 10:22:06;;;;;;;;;2.40;2.00;;;;;20.19;36.21;98541.47;4974553;28;8899;-45
2021/05/23 10:24:41;;;;;;;;;2.00;2.00;;;;;20.15;36.13;98537.88;5003355;28;8789;-45
2021/05/23 10:27:11;;;;;;;;;2.00;2.00;;;;;20.16;36.03;98542.19;4996284;28;8791;-45
2021/05/23 10:29:43;;;;;;;;;2.00;2.00;;;;;20.01;36.12;98525.44;4983926;28;8807;-45
2021/05/23 10:32:12;;;;;;;;;2.00;2.00;;;;;20.14;36.07;98533.53;4972781;28;8773;-45
2021/05/23 10:34:43;;;;;;;;;3.00;3.00;;;;;20.23;35.84;98537.66;4979450;28;8770;-45
2021/05/23 10:37:29;;;;;;;;;2.20;2.20;;;;;20.20;36.07;98537.59;4973064;28;8827;-45
2021/05/23 10:39:57;;;;;;;;;2.40;2.40;;;;;20.20;35.84;98541.09;4994968;28;8889;-44
2021/05/23 10:42:26;;;;;;;;;2.00;2.00;;;;;20.18;36.03;98539.88;4975148;28;8794;-45
2021/05/23 10:44:54;;;;;;;;;2.00;2.00;;;;;20.18;36.00;98539.88;4992267;28;8848;-45
2021/05/23 10:47:28;;;;;;;;;2.00;2.00;;;;;20.23;36.04;98548.59;4994617;28;8810;-45
2021/05/23 10:49:57;;;;;;;;;2.00;2.00;;;;;20.39;35.72;98534.84;4997285;28;8809;-45
2021/05/23 10:52:27;;;;;;;;;2.00;2.00;;;;;20.25;36.03;98545.50;4991050;28;8776;-45
2021/05/23 10:55:06;;;;;;;;;2.00;2.00;;;;;20.20;36.08;98543.06;4996806;28;8881;-45
2021/05/23 10:57:48;;;;;;;;;2.60;2.60;;;;;20.17;36.21;98533.59;4992393;28;8815;-45
2021/05/23 11:00:22;;;;;;;;;2.40;2.40;;;;;20.14;35.95;98555.44;4993921;28;8780;-44
2021/05/23 11:02:48;;;;;;;;;2.00;2.00;;;;;20.15;36.04;98543.34;4979728;28;8814;-45
2021/05/23 11:05:23;;;;;;;;;2.00;2.00;;;;;20.15;35.96;98533.16;4975006;28;8786;-44
2021/05/23 11:08:05;;;;;;;;;2.00;2.00;;;;;20.16;35.95;98539.47;4975795;28;8784;-45
2021/05/23 11:10:42;;;;;;;;;2.00;2.00;;;;;20.13;36.10;98540.97;4991060;28;8776;-45
2021/05/23 11:13:10;;;;;;;;;2.00;2.00;;;;;19.63;36.00;98466.75;4999886;28;8812;-45
2021/05/23 11:15:44;;;;;;;;;1.00;1.00;;;;;20.12;35.97;98544.88;4993051;28;8954;-45
2021/05/23 11:18:14;;;;;;;;;2.00;2.00;;;;;20.13;36.03;98542.91;4993559;28;8769;-45
2021/05/23 11:20:39;;;;;;;;;1.60;1.60;;;;;20.19;36.25;98544.19;4980149;28;8802;-45
2021/05/23 11:23:06;;;;;;;;;2.00;2.00;;;;;20.28;36.03;98539.31;4981030;28;8780;-45
2021/05/23 11:25:33;;;;;;;;;2.00;2.00;;;;;20.13;36.26;98543.69;4990297;28;8865;-45
2021/05/23 11:28:02;;;;;;;;;2.00;2.00;;;;;20.08;36.14;98538.50;4997528;28;8998;-45
2021/05/23 11:30:33;;;;;;;;;2.20;2.20;;;;;20.05;36.21;98545.50;4989928;28;8903;-44
2021/05/23 11:33:01;;;;;;;;;2.00;2.00;;;;;20.07;36.07;98556.09;4988581;28;8894;-45
2021/05/23 11:35:27;;;;;;;;;2.00;2.00;;;;;20.05;36.41;98556.44;4994372;28;8985;-45
2021/05/23 11:37:55;;;;;;;;;1.00;1.00;;;;;20.04;36.11;98563.06;4984564;28;8786;-45
2021/05/23 11:40:21;;;;;;;;;2.20;2.20;;;;;18.44;36.30;98318.34;4974005;28;8826;-45